Avoca, WI

9:54 PM CST on February 13, 2016 (GMT -0600)
Tri-County Regional | | Change Station
CLOSE
Current Station
Airport
Location: Lone Rock,
Elevation: 719 ft
Nearby Weather Stations
Active Advisory: Winter Weather Advisory

Elev 719 ft 43.21 °N, 90.18 °W | Updated 58 minutes ago

Clear
Clear
0 °F
Feels Like 0 °F
N
0
Wind Variable Wind from North

Today
High -- | Low -- °F
--% Chance of Precip.
Yesterday
High -- | Low -- °F
Precip. -- in
Pressure 30.51 in
Visibility 10.0 miles
Clouds Clear
Dew Point -8 °F
Humidity 69%
Rainfall 0.00 in
Snow Depth Not available.
7:02 AM 5:29 PM
Waxing Crescent, 37% visible
METAR KLNR 140256Z AUTO 00000KT 10SM CLR M18/M22 A3046 RMK AO2 SLP331 T11781222 56013
Pressure 30.51 in
Visibility 10.0 miles
Clouds Clear
Dew Point -8 °F
Humidity 69%
Rainfall 0.00 in
Snow Depth Not available.
7:02 AM 5:29 PM
Waxing Crescent, 37% visible
METAR KLNR 140256Z AUTO 00000KT 10SM CLR M18/M22 A3046 RMK AO2 SLP331 T11781222 56013

10-Day Weather Forecast

Almanac

Astronomy

Feb. 13, 2016 Rise Set
Actual Time
Civil Twilight
Nautical Twilight
Astronomical Twilight
Moon
Length of Visible Light
Length of Day
Tomorrow will be .
, % of the Moon is Illuminated

Today's Extremes

State Highs State Lows

Community

WunderPhotos

Upload Photos

1,892,738 photos uploaded!

WunderBlog® & News

Nearby

Air Quality

  Air Quality AQ Index Pollutant
Not available.

Snow Depth

Station Depth Elevation

Earthquake Activity

City Distance Mag. Time & Date
Minimum magnitude displayed is 2.5.

Coastal Water Temperatures

Place Temperature

Stations

Nearby Weather Stations

Station Location Temp. Windchill Dew Point Humidity Wind Precip. Elev Updated Type
                   

Watches & Warnings

Winter Weather Advisory
Issued: 8:52 PM CST Feb. 13, 2016 – National Weather Service

... Winter Weather Advisory remains in effect from 6 am to 9 PM
CST Sunday...

A Winter Weather Advisory remains in effect from 6 am to 9 PM CST
Sunday.

* Timing... snow will start early to mid morning Sunday and
continue into Sunday evening.

* Snow accumulations... 3 to 4 inches.

* Winds... southeast 10 to 15 mph.

* Impacts... snow accumulation on untreated roads or surfaces
will create difficult travel conditions Sunday into Sunday
evening.

A Winter Weather Advisory for snow means that periods of snow
will cause primarily travel difficulties. Be prepared for snow
covered roads and limited visibilities... and use caution while
driving.



Hentz